createdAt,value
2016-10-20T00:00:05.875Z,81.1
2016-10-20T00:00:26.465Z,81.4
2016-10-20T00:00:47.082Z,81.3
2016-10-20T00:01:07.666Z,81
2016-10-20T00:01:28.319Z,81.1
2016-10-20T00:01:48.928Z,80.9
2016-10-20T00:02:09.574Z,81.5
2016-10-20T00:02:30.173Z,81.1
2016-10-20T00:02:50.779Z,81.1
2016-10-20T00:03:11.395Z,81.2
2016-10-20T00:03:32.047Z,81.1
2016-10-20T00:03:52.645Z,81.1
2016-10-20T00:04:13.256Z,81.2
2016-10-20T00:04:33.887Z,81.2
2016-10-20T00:04:54.488Z,81.1
2016-10-20T00:05:15.110Z,81.2
2016-10-20T00:05:35.706Z,81
2016-10-20T00:05:56.302Z,81.5
2016-10-20T00:06:16.954Z,81
2016-10-20T00:06:37.567Z,81.1
2016-10-20T00:06:58.139Z,81.5
2016-10-20T00:07:18.741Z,81.5
2016-10-20T00:07:39.339Z,81.2
2016-10-20T00:07:59.944Z,81.5
2016-10-20T00:08:20.537Z,81.4
2016-10-20T00:08:41.138Z,81.3
2016-10-20T00:09:01.759Z,81.3
2016-10-20T00:09:22.368Z,81.3
2016-10-20T00:09:43.008Z,81.2
2016-10-20T00:10:03.612Z,81.5
2016-10-20T00:10:24.242Z,81.5
2016-10-20T00:10:44.843Z,81.1
2016-10-20T00:11:05.451Z,81.4
2016-10-20T00:11:26.056Z,81.2
2016-10-20T00:11:46.673Z,81.3
2016-10-20T00:12:07.315Z,81.5
2016-10-20T00:12:27.927Z,81.4
2016-10-20T00:12:48.506Z,81.3
2016-10-20T00:13:09.153Z,81.5
2016-10-20T00:13:29.777Z,81.3
2016-10-20T00:13:50.406Z,81.4
2016-10-20T00:14:11.015Z,81.3
2016-10-20T00:14:31.606Z,81.2
2016-10-20T00:14:52.241Z,81.2
2016-10-20T00:15:12.821Z,81.1
2016-10-20T00:15:33.424Z,81.3
2016-10-20T00:15:54.027Z,81.2
2016-10-20T00:16:14.633Z,81.2
2016-10-20T00:16:35.274Z,81.1
2016-10-20T00:16:55.877Z,81.1
2016-10-20T00:17:16.518Z,81.2
2016-10-20T00:17:37.143Z,81.4
2016-10-20T00:17:57.746Z,81.2
2016-10-20T00:18:18.341Z,81.5
2016-10-20T00:18:38.930Z,81.1
2016-10-20T00:18:59.513Z,81.3
2016-10-20T00:19:20.140Z,81.3
2016-10-20T00:19:40.751Z,81.5
2016-10-20T00:20:01.337Z,81.3
2016-10-20T00:20:21.980Z,81.2
2016-10-20T00:20:42.573Z,81.2
2016-10-20T00:21:03.171Z,81.1
2016-10-20T00:21:23.763Z,81.6
2016-10-20T00:21:44.365Z,81.5
2016-10-20T00:22:04.999Z,81.4
2016-10-20T00:22:25.585Z,81.4
2016-10-20T00:22:46.185Z,81.2
2016-10-20T00:23:06.748Z,81.4
2016-10-20T00:23:27.336Z,81.3
2016-10-20T00:23:47.936Z,81.3
2016-10-20T00:24:08.524Z,81.2
2016-10-20T00:24:29.137Z,81.1
2016-10-20T00:24:49.739Z,81.3
2016-10-20T00:25:10.379Z,81.3
2016-10-20T00:25:30.984Z,81.5
2016-10-20T00:25:51.640Z,81.2
2016-10-20T00:26:12.262Z,81.2
2016-10-20T00:26:32.948Z,81.2
2016-10-20T00:26:53.593Z,81.2
2016-10-20T00:27:14.244Z,81.4
2016-10-20T00:27:34.858Z,81.3
2016-10-20T00:27:55.453Z,81.3
2016-10-20T00:28:16.052Z,81.4
2016-10-20T00:28:36.691Z,81.2
2016-10-20T00:28:57.302Z,81.5
2016-10-20T00:29:17.905Z,81.3
2016-10-20T00:29:38.623Z,81.5
2016-10-20T00:29:59.214Z,81.4
2016-10-20T00:30:19.812Z,81.6
2016-10-20T00:30:40.398Z,81.4
2016-10-20T00:31:00.990Z,81.3
2016-10-20T00:31:21.745Z,81.1
2016-10-20T00:31:42.344Z,81.3
2016-10-20T00:32:02.942Z,81.2
2016-10-20T00:32:23.566Z,81
2016-10-20T00:32:44.180Z,81
2016-10-20T00:33:04.795Z,80.6
2016-10-20T00:33:25.400Z,81
2016-10-20T00:33:45.996Z,80.8
2016-10-20T00:34:06.654Z,81
2016-10-20T00:34:27.304Z,81
2016-10-20T00:34:47.896Z,81.1
2016-10-20T00:35:08.501Z,80.5
2016-10-20T00:35:29.094Z,81.3
2016-10-20T00:35:49.770Z,80.8
2016-10-20T00:36:10.356Z,80.8
2016-10-20T00:36:30.999Z,81.1
2016-10-20T00:36:51.632Z,80.9
2016-10-20T00:37:12.231Z,81.1
2016-10-20T00:37:32.847Z,80.8
2016-10-20T00:37:53.454Z,80.8
2016-10-20T00:38:14.060Z,81
2016-10-20T00:38:34.666Z,80.7
2016-10-20T00:38:55.264Z,80.4
2016-10-20T00:39:15.910Z,80.8
2016-10-20T00:39:36.548Z,80.5
2016-10-20T00:39:57.146Z,80.4
2016-10-20T00:40:17.786Z,81.1
2016-10-20T00:40:38.423Z,81.1
2016-10-20T00:40:59.014Z,80.9
2016-10-20T00:41:19.618Z,81.1
2016-10-20T00:41:40.254Z,80.6
2016-10-20T00:42:00.847Z,81.3
2016-10-20T00:42:21.493Z,80.7
2016-10-20T00:42:42.144Z,81
2016-10-20T00:43:02.784Z,81.3
2016-10-20T00:43:23.384Z,80.5
2016-10-20T00:43:44.044Z,81
2016-10-20T00:44:04.647Z,81.2
2016-10-20T00:44:25.277Z,81.5
2016-10-20T00:44:45.908Z,81.3
2016-10-20T00:45:06.517Z,81.3
2016-10-20T00:45:27.111Z,81.4
2016-10-20T00:45:47.705Z,81.5
2016-10-20T00:46:08.336Z,81.6
2016-10-20T00:46:28.923Z,81.5
2016-10-20T00:46:49.547Z,81.5
2016-10-20T00:47:10.162Z,81.2
2016-10-20T00:47:30.756Z,81.3
2016-10-20T00:47:51.350Z,81.5
2016-10-20T00:48:11.941Z,81.3
2016-10-20T00:48:32.598Z,81.3
2016-10-20T00:48:53.173Z,81.6
2016-10-20T00:49:13.790Z,81.3
2016-10-20T00:49:34.443Z,81.5
2016-10-20T00:49:55.050Z,81.4
2016-10-20T00:50:15.643Z,81.4
2016-10-20T00:50:36.246Z,81.3
2016-10-20T00:50:56.868Z,81.2
2016-10-20T00:51:17.515Z,81.3
2016-10-20T00:51:38.122Z,81.2
2016-10-20T00:51:58.754Z,81
2016-10-20T00:52:19.344Z,81
2016-10-20T00:52:39.940Z,81.2
2016-10-20T00:53:00.542Z,81.2
2016-10-20T00:53:21.155Z,81.3
2016-10-20T00:53:41.795Z,81.2
2016-10-20T00:54:02.433Z,81.5
2016-10-20T00:54:23.031Z,81.3
2016-10-20T00:54:43.644Z,81.3
2016-10-20T00:55:04.231Z,81.3
2016-10-20T00:55:24.826Z,81.2
2016-10-20T00:55:45.459Z,81.2
2016-10-20T00:56:06.058Z,81.2
2016-10-20T00:56:26.666Z,81.2
2016-10-20T00:56:47.298Z,81.3
2016-10-20T00:57:07.947Z,81.4
2016-10-20T00:57:28.543Z,81.3
2016-10-20T00:57:49.144Z,81.4
2016-10-20T00:58:09.755Z,81.3
2016-10-20T00:58:30.351Z,81.3
2016-10-20T00:58:50.989Z,81.2
2016-10-20T00:59:11.605Z,81.2
2016-10-20T00:59:32.227Z,81.2
2016-10-20T00:59:52.872Z,81.2
2016-10-20T01:00:13.540Z,81.5
2016-10-20T01:00:34.141Z,81.4
2016-10-20T01:00:54.787Z,81.4
2016-10-20T01:01:15.393Z,81.2
2016-10-20T01:01:35.988Z,81.3
2016-10-20T01:01:56.611Z,81
2016-10-20T01:02:17.214Z,81.2
2016-10-20T01:02:37.875Z,81.4
2016-10-20T01:02:58.469Z,81.4
2016-10-20T01:03:19.086Z,81.2
2016-10-20T01:03:39.699Z,80.9
2016-10-20T01:04:00.298Z,80.6
2016-10-20T01:04:20.960Z,80.7
2016-10-20T01:04:41.583Z,81
2016-10-20T01:05:02.197Z,81.1
2016-10-20T01:05:22.798Z,81.3
2016-10-20T01:05:43.395Z,81.2
2016-10-20T01:06:03.994Z,81.1
2016-10-20T01:06:24.601Z,80.5
2016-10-20T01:06:45.195Z,81.1
2016-10-20T01:07:05.830Z,81
2016-10-20T01:07:26.456Z,80.9
2016-10-20T01:07:47.085Z,81
2016-10-20T01:08:07.679Z,81.1
2016-10-20T01:08:28.275Z,80.7
2016-10-20T01:08:48.867Z,81.1
2016-10-20T01:09:09.502Z,80.7
2016-10-20T01:09:30.088Z,80.3
2016-10-20T01:09:50.662Z,80.7
2016-10-20T01:10:11.249Z,80.7
2016-10-20T01:10:31.854Z,80.5
2016-10-20T01:10:52.440Z,80.5
2016-10-20T01:11:13.024Z,80.4
2016-10-20T01:11:33.623Z,80.6
2016-10-20T01:11:54.210Z,80.6
2016-10-20T01:12:14.789Z,80.3
2016-10-20T01:12:35.430Z,80.3
2016-10-20T01:12:56.024Z,80.7
2016-10-20T01:13:16.602Z,80.8
2016-10-20T01:13:37.215Z,80.8
2016-10-20T01:13:57.799Z,80.8
2016-10-20T01:14:18.387Z,80.9
2016-10-20T01:14:38.993Z,80.5
2016-10-20T01:14:59.587Z,80.9
2016-10-20T01:15:20.170Z,81
2016-10-20T01:15:40.779Z,80.8
2016-10-20T01:16:01.365Z,81.2
2016-10-20T01:16:21.971Z,81
2016-10-20T01:16:42.600Z,81.2
2016-10-20T01:17:03.183Z,80.7
2016-10-20T01:17:23.775Z,80.9
2016-10-20T01:17:44.392Z,80.6
2016-10-20T01:18:04.987Z,80.9
2016-10-20T01:18:25.635Z,81.2
2016-10-20T01:18:46.229Z,80.8
2016-10-20T01:19:06.815Z,81.2
2016-10-20T01:19:27.416Z,80.7
2016-10-20T01:19:48.057Z,80.8
2016-10-20T01:20:08.699Z,81.2
2016-10-20T01:20:29.286Z,81.2
2016-10-20T01:20:49.884Z,81
2016-10-20T01:21:10.515Z,80.6
2016-10-20T01:21:31.134Z,80.4
2016-10-20T01:21:51.758Z,80.4
2016-10-20T01:22:12.357Z,80.4
2016-10-20T01:22:32.952Z,80.8
2016-10-20T01:22:53.534Z,81.2
2016-10-20T01:23:14.143Z,81.2
2016-10-20T01:23:34.792Z,80.8
2016-10-20T01:23:55.383Z,81.1
2016-10-20T01:24:15.981Z,81
2016-10-20T01:24:36.619Z,81.3
2016-10-20T01:24:57.211Z,81.2
2016-10-20T01:25:17.803Z,81.3
2016-10-20T01:25:38.397Z,81.3
2016-10-20T01:25:59.079Z,81.1
2016-10-20T01:26:19.787Z,81
2016-10-20T01:26:40.376Z,81.2
2016-10-20T01:27:00.967Z,81.2
2016-10-20T01:27:21.562Z,81.4
2016-10-20T01:27:42.202Z,81.3
2016-10-20T01:28:02.794Z,81.3
2016-10-20T01:28:23.391Z,81.2
2016-10-20T01:28:43.973Z,81
2016-10-20T01:29:04.589Z,81
2016-10-20T01:29:25.213Z,80.9
2016-10-20T01:29:45.824Z,81.7
2016-10-20T01:30:06.426Z,81.2
2016-10-20T01:30:27.031Z,81.2
2016-10-20T01:30:47.611Z,81.1
2016-10-20T01:31:08.246Z,81.3
2016-10-20T01:31:28.836Z,81.2
2016-10-20T01:31:49.471Z,81.5
2016-10-20T01:32:10.060Z,81.6
2016-10-20T01:32:30.675Z,81.5
2016-10-20T01:32:51.354Z,81.9
2016-10-20T01:33:11.934Z,81.8
2016-10-20T01:33:32.551Z,81.9
2016-10-20T01:33:53.155Z,81.9
2016-10-20T01:34:13.749Z,81.7
2016-10-20T01:34:34.355Z,81.8
2016-10-20T01:34:54.942Z,81.8
2016-10-20T01:35:15.543Z,82
2016-10-20T01:35:36.132Z,81.7
2016-10-20T01:35:56.776Z,81.8
2016-10-20T01:36:17.379Z,81.9
2016-10-20T01:36:38.037Z,81.9
2016-10-20T01:36:58.625Z,81.7
2016-10-20T01:37:19.230Z,81.7
2016-10-20T01:37:39.826Z,81.7
2016-10-20T01:38:00.413Z,81.7
2016-10-20T01:38:21.034Z,81.9
2016-10-20T01:38:41.620Z,81.9
2016-10-20T01:39:02.499Z,81.7
2016-10-20T01:39:23.080Z,81.9
2016-10-20T01:39:43.689Z,81.9
2016-10-20T01:40:04.372Z,81.8
2016-10-20T01:40:24.954Z,81.9
2016-10-20T01:40:45.552Z,81.7
2016-10-20T01:41:06.147Z,81.9
2016-10-20T01:41:26.754Z,81.8
2016-10-20T01:41:47.362Z,81.9
2016-10-20T01:42:07.980Z,81.9
2016-10-20T01:42:28.552Z,82
2016-10-20T01:42:49.148Z,81.9
2016-10-20T01:43:09.793Z,81.5
2016-10-20T01:43:30.437Z,81.7
2016-10-20T01:43:51.026Z,82
2016-10-20T01:44:11.631Z,81.9
2016-10-20T01:44:32.260Z,81.5
2016-10-20T01:44:52.882Z,82.4
2016-10-20T01:45:13.492Z,82.2
2016-10-20T01:45:34.100Z,81.9
2016-10-20T01:45:54.702Z,81.7
2016-10-20T01:46:15.312Z,81.5
2016-10-20T01:46:35.901Z,81.6
2016-10-20T01:46:56.523Z,81.5
2016-10-20T01:47:17.119Z,82
2016-10-20T01:47:37.737Z,82.4
2016-10-20T01:47:58.339Z,81.9
2016-10-20T01:48:18.940Z,81.5
2016-10-20T01:48:39.516Z,81.5
2016-10-20T01:49:00.110Z,82
2016-10-20T01:49:20.685Z,82.3
2016-10-20T01:49:41.370Z,82.5
2016-10-20T01:50:02.013Z,81.8
2016-10-20T01:50:22.625Z,82
2016-10-20T01:50:43.251Z,82.4
2016-10-20T01:51:03.881Z,82.5
2016-10-20T01:51:24.488Z,82.4
2016-10-20T01:51:45.222Z,82.5
2016-10-20T01:52:05.825Z,82.4
2016-10-20T01:52:26.451Z,82.4
2016-10-20T01:52:47.071Z,81.9
2016-10-20T01:53:07.646Z,82.2
2016-10-20T01:53:28.235Z,82.3
2016-10-20T01:53:48.832Z,82.3
2016-10-20T01:54:09.433Z,82.4
2016-10-20T01:54:30.059Z,82.3
2016-10-20T01:54:50.682Z,82.7
2016-10-20T01:55:11.292Z,82.8
2016-10-20T01:55:31.891Z,82.7
2016-10-20T01:55:52.483Z,82.8
2016-10-20T01:56:13.156Z,82.7
2016-10-20T01:56:33.755Z,82.3
2016-10-20T01:56:54.364Z,82.6
2016-10-20T01:57:14.990Z,82.6
2016-10-20T01:57:35.588Z,82.4
2016-10-20T01:57:56.191Z,82.2
2016-10-20T01:58:16.849Z,81.8
2016-10-20T01:58:37.459Z,82.3
2016-10-20T01:58:58.056Z,82.4
2016-10-20T01:59:18.664Z,82.4
2016-10-20T01:59:39.263Z,82.4
2016-10-20T01:59:59.888Z,82.3
2016-10-20T02:00:20.496Z,82.2
2016-10-20T02:00:41.098Z,81.8
2016-10-20T02:01:01.739Z,82.4
2016-10-20T02:01:22.333Z,82.4
2016-10-20T02:01:42.925Z,82.4
2016-10-20T02:02:03.523Z,82.4
2016-10-20T02:02:24.118Z,82.5
2016-10-20T02:02:44.717Z,81.9
2016-10-20T02:03:05.318Z,82.4
2016-10-20T02:03:25.929Z,82.4
2016-10-20T02:03:46.558Z,82.5
2016-10-20T02:04:07.181Z,82.6
2016-10-20T02:04:27.808Z,82.4
2016-10-20T02:04:48.410Z,82.4
2016-10-20T02:05:09.044Z,82.4
2016-10-20T02:05:29.660Z,82.4
2016-10-20T02:05:50.253Z,82.2
2016-10-20T02:06:10.880Z,82.4
2016-10-20T02:06:31.455Z,81.9
2016-10-20T02:06:52.103Z,82.4
2016-10-20T02:07:12.687Z,82.3
2016-10-20T02:07:33.275Z,82.3
2016-10-20T02:07:53.865Z,82.2
2016-10-20T02:08:14.452Z,82.2
2016-10-20T02:08:35.040Z,82.1
2016-10-20T02:08:55.633Z,82.3
2016-10-20T02:09:16.237Z,82.4
2016-10-20T02:09:36.843Z,82.3
2016-10-20T02:09:57.453Z,82.5
2016-10-20T02:10:18.059Z,82.4
2016-10-20T02:10:38.693Z,82.4
2016-10-20T02:10:59.262Z,82.5
2016-10-20T02:11:19.855Z,82.4
2016-10-20T02:11:40.503Z,82.3
2016-10-20T02:12:01.081Z,82.2
2016-10-20T02:12:21.707Z,82.4
2016-10-20T02:12:42.301Z,82.3
2016-10-20T02:13:02.968Z,82.3
2016-10-20T02:13:23.557Z,82.5
2016-10-20T02:13:44.152Z,82.3
2016-10-20T02:14:04.766Z,82.3
2016-10-20T02:14:25.571Z,82.3
2016-10-20T02:14:46.528Z,82.3
2016-10-20T02:15:07.113Z,82.4
2016-10-20T02:15:27.724Z,82.3
2016-10-20T02:15:48.346Z,82.3
2016-10-20T02:16:08.945Z,82.5
2016-10-20T02:16:29.581Z,82.5
2016-10-20T02:16:50.204Z,82.5
2016-10-20T02:17:10.775Z,82.3
2016-10-20T02:17:31.437Z,82.4
2016-10-20T02:17:52.024Z,82.5
2016-10-20T02:18:12.607Z,82.3
2016-10-20T02:18:33.195Z,82.3
2016-10-20T02:18:53.820Z,82.5
2016-10-20T02:19:14.409Z,82.3
2016-10-20T02:19:34.980Z,82.4
2016-10-20T02:19:55.603Z,82.4
2016-10-20T02:20:16.186Z,82
2016-10-20T02:20:36.822Z,81.9
2016-10-20T02:20:57.396Z,82.1
2016-10-20T02:21:17.977Z,82.4
2016-10-20T02:21:38.551Z,82
2016-10-20T02:21:59.159Z,82.4
2016-10-20T02:22:19.752Z,82.4
2016-10-20T02:22:40.332Z,82.5
2016-10-20T02:23:00.908Z,82.4
2016-10-20T02:23:21.503Z,82.1
2016-10-20T02:23:42.064Z,82
2016-10-20T02:24:02.655Z,81.5
2016-10-20T02:24:23.258Z,81.5
2016-10-20T02:24:43.834Z,81.9
2016-10-20T02:25:04.415Z,82
2016-10-20T02:25:25.011Z,82.4
2016-10-20T02:25:45.616Z,82.2
2016-10-20T02:26:06.204Z,82.4
2016-10-20T02:26:26.802Z,82.3
2016-10-20T02:26:47.367Z,82.5
2016-10-20T02:27:07.943Z,82.4
2016-10-20T02:27:28.539Z,82.4
2016-10-20T02:27:49.144Z,82.5
2016-10-20T02:28:09.766Z,82.5
2016-10-20T02:28:30.409Z,82.3
2016-10-20T02:28:50.993Z,82.5
2016-10-20T02:29:11.572Z,82.5
2016-10-20T02:29:32.142Z,82.5
2016-10-20T02:29:52.764Z,82.3
2016-10-20T02:30:13.422Z,82.4
2016-10-20T02:30:33.983Z,82.3
2016-10-20T02:30:54.562Z,82.5
2016-10-20T02:31:15.147Z,82.3
2016-10-20T02:31:35.741Z,82.5
2016-10-20T02:31:56.393Z,82.4
2016-10-20T02:32:16.978Z,82.4
2016-10-20T02:32:37.613Z,82.3
2016-10-20T02:32:58.206Z,82.4
2016-10-20T02:33:18.800Z,82.4
2016-10-20T02:33:39.409Z,82.3
2016-10-20T02:34:00.001Z,81.8
2016-10-20T02:34:20.621Z,81.8
2016-10-20T02:34:41.230Z,82.1
2016-10-20T02:35:01.795Z,81.8
2016-10-20T02:35:22.348Z,81.9
2016-10-20T02:35:42.969Z,81.8
2016-10-20T02:36:03.572Z,81.8
2016-10-20T02:36:24.146Z,81.7
2016-10-20T02:36:44.723Z,81.7
2016-10-20T02:37:05.350Z,81.6
2016-10-20T02:37:25.951Z,81.9
2016-10-20T02:37:46.596Z,81.6
2016-10-20T02:38:07.215Z,81.7
2016-10-20T02:38:27.797Z,81.7
2016-10-20T02:38:48.396Z,81.8
2016-10-20T02:39:08.990Z,81.7
2016-10-20T02:39:29.573Z,81.7
2016-10-20T02:39:50.152Z,82.2
2016-10-20T02:40:10.731Z,81.9
2016-10-20T02:40:31.399Z,82.4
2016-10-20T02:40:51.979Z,81.9
2016-10-20T02:41:12.563Z,82.4
2016-10-20T02:41:33.153Z,81.9
2016-10-20T02:41:53.770Z,82.5
2016-10-20T02:42:14.355Z,82.4
2016-10-20T02:42:34.929Z,82.3
2016-10-20T02:42:55.531Z,81.9
2016-10-20T02:43:16.121Z,82.4
2016-10-20T02:43:36.797Z,82
2016-10-20T02:43:57.365Z,82.5
2016-10-20T02:44:17.968Z,82.5
2016-10-20T02:44:38.545Z,82.4
2016-10-20T02:44:59.111Z,82.5
2016-10-20T02:45:19.703Z,81.9
2016-10-20T02:45:40.291Z,81.9
2016-10-20T02:46:00.882Z,82.4
2016-10-20T02:46:21.470Z,82.4
2016-10-20T02:46:42.065Z,82.4
2016-10-20T02:47:02.656Z,81.5
2016-10-20T02:47:23.258Z,82.5
2016-10-20T02:47:44.432Z,82.4
2016-10-20T02:48:05.037Z,81.5
2016-10-20T02:48:25.616Z,81.5
2016-10-20T02:48:46.247Z,81.7
2016-10-20T02:49:06.841Z,81.9
2016-10-20T02:49:27.448Z,82
2016-10-20T02:49:48.034Z,82
2016-10-20T02:50:08.630Z,82
2016-10-20T02:50:29.262Z,81.9
2016-10-20T02:50:49.847Z,81.7
2016-10-20T02:51:10.434Z,81.5
2016-10-20T02:51:31.049Z,82
2016-10-20T02:51:51.640Z,81.7
2016-10-20T02:52:12.271Z,81.7
2016-10-20T02:52:32.858Z,81.5
2016-10-20T02:52:53.443Z,81.5
2016-10-20T02:53:14.023Z,81.8
2016-10-20T02:53:34.584Z,81.7
2016-10-20T02:53:55.177Z,81.6
2016-10-20T02:54:15.767Z,81.5
2016-10-20T02:54:36.362Z,81.9
2016-10-20T02:54:57.026Z,82
2016-10-20T02:55:17.617Z,81.5
2016-10-20T02:55:38.204Z,82
2016-10-20T02:55:58.780Z,82
2016-10-20T02:56:19.388Z,81.7
2016-10-20T02:56:39.972Z,81.9
2016-10-20T02:57:00.585Z,81.9
2016-10-20T02:57:21.180Z,81.9
2016-10-20T02:57:41.754Z,81.7
2016-10-20T02:58:02.371Z,81.8
2016-10-20T02:58:22.963Z,81.8
2016-10-20T02:58:43.615Z,82.1
2016-10-20T02:59:04.203Z,81.8
2016-10-20T02:59:24.813Z,82
2016-10-20T02:59:45.393Z,82
2016-10-20T03:00:05.959Z,82
2016-10-20T03:00:26.553Z,82
2016-10-20T03:00:47.152Z,81.8
2016-10-20T03:01:07.726Z,81.9
2016-10-20T03:01:28.307Z,81.9
2016-10-20T03:01:48.921Z,81.9
2016-10-20T03:02:09.505Z,82
2016-10-20T03:02:30.102Z,82
2016-10-20T03:02:50.673Z,81.7
2016-10-20T03:03:11.259Z,81.7
2016-10-20T03:03:31.837Z,81.9
2016-10-20T03:03:52.419Z,81.9
2016-10-20T03:04:13.017Z,81.7
2016-10-20T03:04:33.633Z,81.9
2016-10-20T03:04:54.214Z,81.7
2016-10-20T03:05:14.823Z,82
2016-10-20T03:05:35.442Z,82
2016-10-20T03:05:56.057Z,81.7
2016-10-20T03:06:16.631Z,81.8
2016-10-20T03:06:37.254Z,81.8
2016-10-20T03:06:57.837Z,81.8
2016-10-20T03:07:18.409Z,81.9
2016-10-20T03:07:39.037Z,81.8
2016-10-20T03:07:59.599Z,81.8
2016-10-20T03:08:20.181Z,81.8
2016-10-20T03:08:40.756Z,81.7
2016-10-20T03:09:01.357Z,81.8
2016-10-20T03:09:21.928Z,81.8
2016-10-20T03:09:42.532Z,81.8
2016-10-20T03:10:03.124Z,81.7
2016-10-20T03:10:23.713Z,81.8
2016-10-20T03:10:44.303Z,81.8
2016-10-20T03:11:04.988Z,81.7
2016-10-20T03:11:25.616Z,81.4
2016-10-20T03:11:46.189Z,81.9
2016-10-20T03:12:06.827Z,82
2016-10-20T03:12:27.420Z,81.8
2016-10-20T03:12:48.016Z,81.7
2016-10-20T03:13:08.614Z,81.7
2016-10-20T03:13:29.201Z,81.8
2016-10-20T03:13:49.782Z,81.7
2016-10-20T03:14:10.367Z,81.8
2016-10-20T03:14:30.955Z,81.5
2016-10-20T03:14:51.569Z,82
2016-10-20T03:15:12.154Z,82
2016-10-20T03:15:32.747Z,81.7
2016-10-20T03:15:53.350Z,81.7
2016-10-20T03:16:13.968Z,81.7
2016-10-20T03:16:34.569Z,81.5
2016-10-20T03:16:55.148Z,81.4
2016-10-20T03:17:15.744Z,81.5
2016-10-20T03:17:36.340Z,81.5
2016-10-20T03:17:56.918Z,81.5
2016-10-20T03:18:17.514Z,81.5
2016-10-20T03:18:38.099Z,81.9
2016-10-20T03:18:58.724Z,81.7
2016-10-20T03:19:19.343Z,81.7
2016-10-20T03:19:39.987Z,81.6
2016-10-20T03:20:00.573Z,81.7
2016-10-20T03:20:21.168Z,81.7
2016-10-20T03:20:41.786Z,81.9
2016-10-20T03:21:02.377Z,81.8
2016-10-20T03:21:22.963Z,81.5
2016-10-20T03:21:43.530Z,81.9
2016-10-20T03:22:04.099Z,81.4
2016-10-20T03:22:24.708Z,81.5
2016-10-20T03:22:45.288Z,81.4
2016-10-20T03:23:05.884Z,81.5
2016-10-20T03:23:26.487Z,81.5
2016-10-20T03:23:47.087Z,81.4
2016-10-20T03:24:07.668Z,81.4
2016-10-20T03:24:28.294Z,81.8
2016-10-20T03:24:48.928Z,81.9
2016-10-20T03:25:09.555Z,81.9
2016-10-20T03:25:30.182Z,81.8
2016-10-20T03:25:50.758Z,81.8
2016-10-20T03:26:11.352Z,81.9
2016-10-20T03:26:31.927Z,81.7
2016-10-20T03:26:52.538Z,81.7
2016-10-20T03:27:13.134Z,82
2016-10-20T03:27:33.783Z,81.7
2016-10-20T03:27:54.428Z,81.7
2016-10-20T03:28:15.048Z,81.9
2016-10-20T03:28:35.649Z,81.7
2016-10-20T03:28:56.218Z,81.9
2016-10-20T03:29:16.832Z,81.9
2016-10-20T03:29:37.423Z,81.8
2016-10-20T03:29:57.998Z,81.8
2016-10-20T03:30:18.612Z,81.9
2016-10-20T03:30:39.192Z,81.9
2016-10-20T03:30:59.855Z,81.7
2016-10-20T03:31:20.435Z,81.8
2016-10-20T03:31:41.033Z,81.8
2016-10-20T03:32:01.617Z,81.9
2016-10-20T03:32:22.187Z,81.9
2016-10-20T03:32:42.777Z,81.8
2016-10-20T03:33:03.416Z,81.9
2016-10-20T03:33:24.007Z,81.8
2016-10-20T03:33:44.590Z,81.8
2016-10-20T03:34:05.232Z,81.8
2016-10-20T03:34:25.827Z,81.8
2016-10-20T03:34:46.422Z,81.9
2016-10-20T03:35:07.006Z,81.7
2016-10-20T03:35:27.584Z,81.7
2016-10-20T03:35:48.179Z,81.7
2016-10-20T03:36:08.757Z,81.9
2016-10-20T03:36:29.384Z,81.9
2016-10-20T03:36:49.970Z,81.9
2016-10-20T03:37:10.613Z,81.9
2016-10-20T03:37:31.194Z,82
2016-10-20T03:37:51.772Z,82
2016-10-20T03:38:12.400Z,81.9
2016-10-20T03:38:32.977Z,81.9
2016-10-20T03:38:53.551Z,81.6
2016-10-20T03:39:14.147Z,81.6
2016-10-20T03:39:34.753Z,81.9
2016-10-20T03:39:55.354Z,81.8
2016-10-20T03:40:15.954Z,82
2016-10-20T03:40:36.539Z,81.8
2016-10-20T03:40:57.118Z,82
2016-10-20T03:41:17.717Z,81.9
2016-10-20T03:41:38.292Z,81.8
2016-10-20T03:41:58.885Z,82
2016-10-20T03:42:19.476Z,81.8
2016-10-20T03:42:40.071Z,81.9
2016-10-20T03:43:00.700Z,81.9
2016-10-20T03:43:21.283Z,82
2016-10-20T03:43:41.883Z,81.9
2016-10-20T03:44:02.467Z,81.9
2016-10-20T03:44:23.049Z,82.1
2016-10-20T03:44:43.653Z,82.1
2016-10-20T03:45:04.219Z,81.9
2016-10-20T03:45:24.814Z,81.7
2016-10-20T03:45:45.424Z,81.8
2016-10-20T03:46:06.030Z,81.7
2016-10-20T03:46:26.613Z,81.8
2016-10-20T03:46:47.211Z,82.2
2016-10-20T03:47:07.795Z,81.9
2016-10-20T03:47:28.381Z,81.7
2016-10-20T03:47:48.992Z,81.6
2016-10-20T03:48:09.600Z,82
2016-10-20T03:48:30.219Z,81.7
2016-10-20T03:48:50.791Z,81.7
2016-10-20T03:49:11.413Z,81.9
2016-10-20T03:49:32.017Z,81.8
2016-10-20T03:49:52.586Z,81.9
2016-10-20T03:50:13.202Z,82.1
2016-10-20T03:50:33.777Z,81.9
2016-10-20T03:50:54.388Z,82
2016-10-20T03:51:14.966Z,82.1
2016-10-20T03:51:35.596Z,81.9
2016-10-20T03:51:56.177Z,81.6
2016-10-20T03:52:16.800Z,81.9
2016-10-20T03:52:37.370Z,81.7
2016-10-20T03:52:57.927Z,81.8
2016-10-20T03:53:18.506Z,81.9
2016-10-20T03:53:39.080Z,81.8
2016-10-20T03:53:59.651Z,82
2016-10-20T03:54:20.224Z,81.9
2016-10-20T03:54:40.826Z,81.9
2016-10-20T03:55:01.440Z,81.8
2016-10-20T03:55:22.002Z,82
2016-10-20T03:55:42.601Z,82
2016-10-20T03:56:03.196Z,82
2016-10-20T03:56:23.770Z,81.9
2016-10-20T03:56:44.441Z,82
2016-10-20T03:57:05.012Z,82
2016-10-20T03:57:25.590Z,82
2016-10-20T03:57:46.202Z,81.7
2016-10-20T03:58:06.762Z,81.7
2016-10-20T03:58:27.334Z,82
2016-10-20T03:58:47.903Z,81.9
2016-10-20T03:59:08.473Z,81.7
2016-10-20T03:59:29.062Z,81.6
2016-10-20T03:59:49.645Z,81.8
2016-10-20T04:00:10.224Z,81.8
2016-10-20T04:00:30.784Z,81.5
2016-10-20T04:00:51.469Z,81.6
2016-10-20T04:01:12.060Z,81.7
2016-10-20T04:01:32.644Z,81.7
2016-10-20T04:01:53.231Z,81.7
2016-10-20T04:02:13.836Z,81.7
2016-10-20T04:02:34.421Z,81.9
2016-10-20T04:02:55.030Z,81.5
2016-10-20T04:03:15.606Z,81.8
2016-10-20T04:03:36.188Z,81.5
2016-10-20T04:03:56.806Z,81.9
2016-10-20T04:04:17.409Z,81.7
2016-10-20T04:04:37.977Z,81.7
2016-10-20T04:04:58.587Z,81.7
2016-10-20T04:05:19.185Z,81.8
2016-10-20T04:05:39.756Z,82
2016-10-20T04:06:00.424Z,81.7
2016-10-20T04:06:21.851Z,81.7
2016-10-20T04:06:42.532Z,81.7
2016-10-20T04:07:03.090Z,82
2016-10-20T04:07:23.658Z,81.5
2016-10-20T04:07:44.253Z,81.7
2016-10-20T04:08:04.825Z,81.5
2016-10-20T04:08:25.433Z,81.5
2016-10-20T04:08:46.002Z,81.7
2016-10-20T04:09:06.586Z,81.7
2016-10-20T04:09:27.200Z,81.7
2016-10-20T04:09:47.774Z,81.9
2016-10-20T04:10:08.360Z,81.5
2016-10-20T04:10:28.938Z,81.6
2016-10-20T04:10:49.517Z,81.9
2016-10-20T04:11:10.116Z,81.9
2016-10-20T04:11:30.680Z,81.9
2016-10-20T04:11:51.319Z,81.5
2016-10-20T04:12:11.883Z,81.9
2016-10-20T04:12:32.465Z,81.7
2016-10-20T04:12:53.045Z,81.9
2016-10-20T04:13:13.655Z,81.7
2016-10-20T04:13:34.300Z,81.8
2016-10-20T04:13:54.905Z,81.5
2016-10-20T04:14:15.495Z,81.5
2016-10-20T04:14:36.083Z,81.9
2016-10-20T04:14:56.646Z,81.5
2016-10-20T04:15:17.232Z,82.1
2016-10-20T04:15:37.815Z,81.9
2016-10-20T04:15:58.373Z,81.8
2016-10-20T04:16:18.942Z,82.3
2016-10-20T04:16:39.515Z,82.4
2016-10-20T04:17:00.117Z,82.5
2016-10-20T04:17:20.678Z,82.3
2016-10-20T04:17:41.250Z,82.5
2016-10-20T04:18:01.841Z,82.4
2016-10-20T04:18:22.396Z,82.5
2016-10-20T04:18:42.985Z,82.4
2016-10-20T04:19:03.556Z,82.5
2016-10-20T04:19:24.135Z,82.3
2016-10-20T04:19:44.711Z,82.3
2016-10-20T04:20:05.296Z,82.2
2016-10-20T04:20:25.936Z,82.4
2016-10-20T04:20:46.510Z,82.4
2016-10-20T04:21:07.083Z,82.5
2016-10-20T04:21:27.679Z,82.5
2016-10-20T04:21:48.252Z,82.4
2016-10-20T04:22:08.828Z,82.4
2016-10-20T04:22:29.407Z,81.9
2016-10-20T04:22:49.992Z,82.4
2016-10-20T04:23:10.629Z,82.4
2016-10-20T04:23:31.258Z,82.5
2016-10-20T04:23:51.838Z,82.3
2016-10-20T04:24:12.409Z,82.4
2016-10-20T04:24:32.982Z,82.4
2016-10-20T04:24:53.568Z,82.3
2016-10-20T04:25:14.143Z,82.2
2016-10-20T04:25:34.747Z,82.4
2016-10-20T04:25:55.308Z,81.9
2016-10-20T04:26:15.883Z,81.9
2016-10-20T04:26:36.495Z,82
2016-10-20T04:26:57.082Z,81.8
2016-10-20T04:27:17.659Z,81.7
2016-10-20T04:27:38.248Z,81.8
2016-10-20T04:27:58.836Z,82.5
2016-10-20T04:28:19.420Z,81.5
2016-10-20T04:28:40.056Z,82
2016-10-20T04:29:00.650Z,81.8
2016-10-20T04:29:21.217Z,81.9
2016-10-20T04:29:41.807Z,81.9
2016-10-20T04:30:02.371Z,81.7
2016-10-20T04:30:22.935Z,81.4
2016-10-20T04:30:43.526Z,81.5
2016-10-20T04:31:04.094Z,81.5
2016-10-20T04:31:24.663Z,81.5
2016-10-20T04:31:45.259Z,81.5
2016-10-20T04:32:05.861Z,81.9
2016-10-20T04:32:26.435Z,81.9
2016-10-20T04:32:47.041Z,81.9
2016-10-20T04:33:07.653Z,81.6
2016-10-20T04:33:28.232Z,81.8
2016-10-20T04:33:48.799Z,81.9
2016-10-20T04:34:09.379Z,82
2016-10-20T04:34:29.965Z,82.1
2016-10-20T04:34:50.628Z,81.9
2016-10-20T04:35:11.211Z,81.8
2016-10-20T04:35:31.805Z,81.7
2016-10-20T04:35:52.373Z,81.9